OIII/THR METAR and TAF weather

Enter ICAO airport designator
Station Type Date Time Source
OIII METAR 2021/07/29 09:00 UTC NOAA

OIII 290900Z 15008KT 9999 FEW035TCU 32/10 Q1011 A2987 NOSIG


Station Type Date Time Source
OIII Decoded METAR 2021/07/29 09:00 UTC NOAA

Tehran-Mehrabad, Iran (OIII) 35-41N 051-21E 1191M
Jul 29, 2021 - 05:00 AM EDT / 2021.07.29 0900 UTC
Wind: from the SSE (150 degrees) at 9 MPH (8 KT):0
Visibility: greater than 7 mile(s):0
Sky conditions: mostly clear
Weather: Towering cumulus clouds observed
Temperature: 89 F (32 C)
Dew Point: 50 F (10 C)
Relative Humidity: 25%
Pressure (altimeter): 29.87 in. Hg (1011 hPa)
ob: OIII 290900Z 15008KT 9999 FEW035TCU 32/10 Q1011 A2987 NOSIG
cycle: 9

Station Type Date Time Source
OIII TAF 2021/07/29 06:15 UTC NOAA

TAF OIII 290550Z 2906/3012 14008KT 7000 FEW040 SCT100
TEMPO 2909/2915 20016KT FEW035CB SCT040 SCT090
TEMPO 2918/3003 32012G22KT 4000 TSRA SA FEW035CB SCT040 BKN100
TEMPO 3009/3012 12018KT FEW035CB SCT040 BKN100

Example: see airport list